Avawam, Kentucky
Current Conditions -  °F | °C
As of 8:53 PM on Monday 22 Dec 2014 (Local Time) from KJKL Reporting Station
Broken Clouds Broken Clouds  
Wind Chill: 51°   Ceiling: 4800
Heat Index: 51°   Visibility: 10mi
Dew Point: 40°   Wind: 6mph
Humidity: 66%   Direction: 110°ESE
Pressure: 29.82"   Gusts: NA
Location:  37.22°N, 83.27°W
Report Text: KJKL 230153Z AUTO 11005KT 10SM BKN048 BKN065 11/04 A2982 RMK AO2 SLP096 T01060044
Loading
Personal Weather Stations






























Interactive Weather Map New forecast layout! Learn more

10-Day Weather Forecast

Advertisements
Track Severe Weather on mobile